createdAt,value
2023-05-22T00:02:33.152Z,98996.77
2023-05-22T00:07:35.077Z,98996.79
2023-05-22T00:12:36.779Z,98993.54
2023-05-22T00:17:38.890Z,98992.70
2023-05-22T00:22:40.949Z,98987.90
2023-05-22T00:27:42.642Z,98986.73
2023-05-22T00:32:44.644Z,98982.10
2023-05-22T00:37:46.897Z,98972.70
2023-05-22T00:42:48.656Z,98966.36
2023-05-22T00:47:50.858Z,98969.65
2023-05-22T00:52:52.810Z,98970.18
2023-05-22T00:57:55.466Z,98968.48
2023-05-22T01:02:58.110Z,98963.36
2023-05-22T01:08:00.526Z,98963.38
2023-05-22T01:13:30.260Z,98960.31
2023-05-22T01:18:58.919Z,98954.70
2023-05-22T01:24:12.224Z,98950.23
2023-05-22T01:29:42.383Z,98946.62
2023-05-22T01:34:47.995Z,98943.37
2023-05-22T01:39:52.480Z,98941.82
2023-05-22T01:44:54.308Z,98946.77
2023-05-22T01:49:57.527Z,98948.15
2023-05-22T01:55:10.123Z,98945.91
2023-05-22T02:00:17.541Z,98945.38
2023-05-22T02:05:23.386Z,98939.02
2023-05-22T02:10:28.111Z,98933.70
2023-05-22T02:15:30.701Z,98940.50
2023-05-22T02:20:34.039Z,98941.67
2023-05-22T02:25:36.233Z,98941.14
2023-05-22T02:30:38.407Z,98944.52
2023-05-22T02:35:40.788Z,98944.52
2023-05-22T02:40:42.923Z,98939.04
2023-05-22T02:45:45.226Z,98937.65
2023-05-22T02:50:48.778Z,98938.98
2023-05-22T02:55:52.938Z,98939.98
2023-05-22T03:00:54.926Z,98940.16
2023-05-22T03:05:58.610Z,98937.77
2023-05-22T03:11:02.016Z,98937.98
2023-05-22T03:16:03.960Z,98936.80
2023-05-22T03:21:06.642Z,98938.18
2023-05-22T03:26:08.421Z,98937.17
2023-05-22T03:31:11.308Z,98950.03
2023-05-22T03:36:26.571Z,98942.38
2023-05-22T03:41:28.422Z,98941.73
2023-05-22T03:46:30.460Z,98946.23
2023-05-22T03:51:32.569Z,98948.13
2023-05-22T03:56:35.536Z,98951.39
2023-05-22T04:01:39.170Z,98946.27
2023-05-22T04:06:43.811Z,98946.80
2023-05-22T04:11:48.771Z,98945.76
2023-05-22T04:16:51.124Z,98944.57
2023-05-22T04:21:53.419Z,98940.95
2023-05-22T04:26:55.205Z,98938.67
2023-05-22T04:31:56.990Z,98934.83
2023-05-22T04:37:00.187Z,98933.05
2023-05-22T04:42:06.002Z,98931.59
2023-05-22T04:47:11.628Z,98937.16
2023-05-22T04:52:13.536Z,98932.58
2023-05-22T04:57:17.255Z,98926.57
2023-05-22T05:02:20.149Z,98928.27
2023-05-22T05:07:23.759Z,98929.61
2023-05-22T05:12:25.549Z,98920.22
2023-05-22T05:17:27.809Z,98928.85
2023-05-22T05:22:29.596Z,98922.51
2023-05-22T05:27:33.530Z,98930.72
2023-05-22T05:32:37.390Z,98912.37
2023-05-22T05:37:56.681Z,98936.27
2023-05-22T05:42:59.342Z,98939.20
2023-05-22T05:48:01.756Z,98932.94
2023-05-22T05:53:05.284Z,98934.27
2023-05-22T05:58:09.431Z,98929.95
2023-05-22T06:03:17.926Z,98926.34
2023-05-22T06:08:55.829Z,98919.90
2023-05-22T06:14:03.296Z,98921.65
2023-05-22T06:19:05.103Z,98922.49
2023-05-22T06:24:07.026Z,98921.45
2023-05-22T06:29:09.429Z,98921.25
2023-05-22T06:34:12.210Z,98917.17
2023-05-22T06:39:14.308Z,98921.73
2023-05-22T06:44:42.256Z,98917.15
2023-05-22T06:49:44.272Z,98915.33
2023-05-22T06:54:46.090Z,98919.10
2023-05-22T06:59:49.413Z,98920.14
2023-05-22T07:05:11.836Z,98913.03
2023-05-22T07:10:27.690Z,98919.50
2023-05-22T07:15:30.094Z,98913.09
2023-05-22T07:20:32.700Z,98911.59
2023-05-22T07:25:43.243Z,98905.23
2023-05-22T07:30:45.570Z,98905.02
2023-05-22T07:35:47.578Z,98904.29
2023-05-22T07:40:49.926Z,98899.28
2023-05-22T07:45:54.171Z,98898.05
2023-05-22T07:50:58.513Z,98893.59
2023-05-22T07:56:00.847Z,98893.09
2023-05-22T08:01:05.827Z,98896.04
2023-05-22T08:06:10.048Z,98894.96
2023-05-22T08:11:12.029Z,98890.39
2023-05-22T08:16:13.943Z,98888.37
2023-05-22T08:21:15.743Z,98885.02
2023-05-22T08:26:17.542Z,98882.70
2023-05-22T08:31:19.336Z,98877.78
2023-05-22T08:36:23.391Z,98872.11
2023-05-22T08:41:25.546Z,98870.30
2023-05-22T08:46:30.107Z,98861.95
2023-05-22T08:51:34.406Z,98862.56
2023-05-22T08:56:39.716Z,98866.48
2023-05-22T09:01:49.187Z,98862.54
2023-05-22T09:06:51.963Z,98865.92
2023-05-22T09:11:54.821Z,98863.02
2023-05-22T09:16:56.972Z,98861.14
2023-05-22T09:22:06.325Z,98861.69
2023-05-22T09:27:08.720Z,98860.33
2023-05-22T09:32:13.907Z,98858.86
2023-05-22T09:37:17.676Z,98860.68
2023-05-22T09:42:19.541Z,98856.41
2023-05-22T09:47:22.400Z,98854.69
2023-05-22T09:52:24.559Z,98855.02
2023-05-22T09:57:27.937Z,98849.69
2023-05-22T10:02:30.718Z,98849.32
2023-05-22T10:07:37.664Z,98840.85
2023-05-22T10:12:47.990Z,98838.56
2023-05-22T10:17:50.348Z,98834.07
2023-05-22T10:22:54.149Z,98832.63
2023-05-22T10:27:57.384Z,98829.27
2023-05-22T10:33:14.165Z,98826.38
2023-05-22T10:38:24.965Z,98824.09
2023-05-22T10:43:32.043Z,98825.30
2023-05-22T10:48:41.952Z,98822.58
2023-05-22T10:53:45.382Z,98822.22
2023-05-22T10:59:02.777Z,98821.88
2023-05-22T11:04:04.584Z,98818.37
2023-05-22T11:09:29.063Z,98808.95
2023-05-22T11:14:31.098Z,98806.02
2023-05-22T11:19:32.909Z,98798.94
2023-05-22T11:24:35.149Z,98793.64
2023-05-22T11:29:38.929Z,98791.61
2023-05-22T11:34:41.127Z,98791.02
2023-05-22T11:39:42.966Z,98788.02
2023-05-22T11:44:48.105Z,98788.30
2023-05-22T11:49:49.804Z,98791.90
2023-05-22T11:54:52.948Z,98797.95
2023-05-22T11:59:54.729Z,98797.05
2023-05-22T12:05:10.372Z,98796.79
2023-05-22T12:10:15.601Z,98798.22
2023-05-22T12:15:21.298Z,98800.57
2023-05-22T12:20:23.317Z,98796.11
2023-05-22T12:25:37.301Z,98792.67
2023-05-22T12:30:42.652Z,98785.27
2023-05-22T12:35:44.599Z,98776.77
2023-05-22T12:40:46.754Z,98774.27
2023-05-22T12:45:49.056Z,98765.02
2023-05-22T12:50:51.132Z,98759.75
2023-05-22T12:55:52.914Z,98758.40
2023-05-22T13:00:54.654Z,98755.33
2023-05-22T13:05:56.346Z,98763.69
2023-05-22T13:10:58.195Z,98757.70
2023-05-22T13:16:00.196Z,98751.88
2023-05-22T13:21:02.273Z,98755.41
2023-05-22T13:26:04.255Z,98755.39
2023-05-22T13:31:06.081Z,98753.86
2023-05-22T13:36:07.885Z,98751.85
2023-05-22T13:41:10.257Z,98753.95
2023-05-22T13:46:12.029Z,98752.94
2023-05-22T13:51:13.831Z,98745.61
2023-05-22T13:56:15.632Z,98740.48
2023-05-22T14:01:17.424Z,98739.31
2023-05-22T14:06:19.546Z,98732.43
2023-05-22T14:11:22.453Z,98723.11
2023-05-22T14:16:24.317Z,98721.08
2023-05-22T14:21:27.249Z,98725.15
2023-05-22T14:26:28.988Z,98716.59
2023-05-22T14:31:31.019Z,98714.79
2023-05-22T14:36:32.896Z,98711.39
2023-05-22T14:41:34.656Z,98698.99
2023-05-22T14:46:36.549Z,98695.80
2023-05-22T14:51:38.408Z,98696.17
2023-05-22T14:56:40.391Z,98692.30
2023-05-22T15:01:42.240Z,98691.20
2023-05-22T15:06:45.272Z,98681.87
2023-05-22T15:11:49.265Z,98672.24
2023-05-22T15:16:51.286Z,98675.13
2023-05-22T15:21:54.641Z,98672.89
2023-05-22T15:26:57.063Z,98667.60
2023-05-22T15:31:59.911Z,98664.84
2023-05-22T15:37:01.753Z,98659.61
2023-05-22T15:42:06.673Z,98656.70
2023-05-22T15:47:08.815Z,98659.27
2023-05-22T15:52:10.560Z,98662.17
2023-05-22T15:57:12.478Z,98653.92
2023-05-22T16:02:14.385Z,98650.77
2023-05-22T16:07:17.075Z,98647.54
2023-05-22T16:12:18.946Z,98643.13
2023-05-22T16:17:20.913Z,98642.16
2023-05-22T16:22:24.613Z,98633.70
2023-05-22T16:27:28.191Z,98634.40
2023-05-22T16:32:30.051Z,98635.41
2023-05-22T16:37:32.722Z,98633.91
2023-05-22T16:42:35.344Z,98637.73
2023-05-22T16:47:37.203Z,98638.19
2023-05-22T16:52:39.153Z,98642.62
2023-05-22T16:57:41.018Z,98646.06
2023-05-22T17:02:43.112Z,98651.42
2023-05-22T17:07:44.973Z,98653.88
2023-05-22T17:12:46.861Z,98657.29
2023-05-22T17:17:48.650Z,98655.50
2023-05-22T17:22:50.511Z,98666.73
2023-05-22T17:27:52.341Z,98663.97
2023-05-22T17:32:56.858Z,98665.88
2023-05-22T17:37:58.863Z,98644.42
2023-05-22T17:43:02.490Z,98660.37
2023-05-22T17:48:04.451Z,98664.65
2023-05-22T17:53:06.451Z,98658.31
2023-05-22T17:58:08.167Z,98658.52
2023-05-22T18:03:10.241Z,98657.94
2023-05-22T18:08:12.117Z,98663.95
2023-05-22T18:13:13.897Z,98658.36
2023-05-22T18:18:16.553Z,98659.98
2023-05-22T18:23:19.487Z,98655.74
2023-05-22T18:28:26.225Z,98658.13
2023-05-22T18:33:28.124Z,98657.78
2023-05-22T18:38:30.687Z,98660.59
2023-05-22T18:43:32.479Z,98657.20
2023-05-22T18:48:34.157Z,98667.05
2023-05-22T18:53:36.166Z,98667.16
2023-05-22T18:58:41.513Z,98666.42
2023-05-22T19:03:43.327Z,98665.65
2023-05-22T19:08:45.664Z,98668.55
2023-05-22T19:13:47.567Z,98666.39
2023-05-22T19:18:49.316Z,98673.52
2023-05-22T19:23:51.227Z,98672.75
2023-05-22T19:28:53.575Z,98673.14
2023-05-22T19:33:55.582Z,98669.92
2023-05-22T19:38:57.314Z,98672.16
2023-05-22T19:43:59.232Z,98673.71
2023-05-22T19:49:01.056Z,98670.05
2023-05-22T19:54:03.253Z,98669.45
2023-05-22T19:59:04.960Z,98672.08
2023-05-22T20:04:06.833Z,98667.93
2023-05-22T20:09:09.043Z,98666.40
2023-05-22T20:14:13.533Z,98662.52
2023-05-22T20:19:15.323Z,98659.16
2023-05-22T20:24:19.069Z,98663.27
2023-05-22T20:29:22.073Z,98657.02
2023-05-22T20:34:36.926Z,98652.31
2023-05-22T20:39:38.648Z,98648.26
2023-05-22T20:44:41.370Z,98646.78
2023-05-22T20:49:43.064Z,98650.98
2023-05-22T20:54:44.800Z,98650.40
2023-05-22T20:59:46.585Z,98644.27
2023-05-22T21:04:48.393Z,98640.04
2023-05-22T21:09:51.093Z,98637.85
2023-05-22T21:14:56.244Z,98635.01
2023-05-22T21:19:58.179Z,98632.40
2023-05-22T21:24:59.890Z,98633.02
2023-05-22T21:30:01.694Z,98630.55
2023-05-22T21:35:08.642Z,98632.86
2023-05-22T21:40:11.836Z,98629.99
2023-05-22T21:45:15.053Z,98627.69
2023-05-22T21:50:18.928Z,98631.08
2023-05-22T21:55:21.794Z,98628.73
2023-05-22T22:00:23.760Z,98629.23
2023-05-22T22:05:27.660Z,98626.45
2023-05-22T22:10:29.449Z,98619.95
2023-05-22T22:15:32.202Z,98616.71
2023-05-22T22:20:44.438Z,98617.13
2023-05-22T22:25:57.309Z,98614.67
2023-05-22T22:30:59.188Z,98607.93
2023-05-22T22:36:01.790Z,98607.52
2023-05-22T22:41:04.830Z,98605.20
2023-05-22T22:46:07.364Z,98600.59
2023-05-22T22:51:09.680Z,98598.10
2023-05-22T22:56:12.030Z,98595.73
2023-05-22T23:01:13.740Z,98600.05
2023-05-22T23:06:17.165Z,98601.48
2023-05-22T23:11:20.201Z,98596.91
2023-05-22T23:16:23.054Z,98595.31
2023-05-22T23:21:24.898Z,98596.63
2023-05-22T23:26:30.849Z,98593.69
2023-05-22T23:31:33.072Z,98586.98
2023-05-22T23:36:34.953Z,98577.35
2023-05-22T23:41:37.684Z,98567.89
2023-05-22T23:46:41.527Z,98569.36
2023-05-22T23:51:45.647Z,98570.27
2023-05-22T23:56:47.366Z,98569.45
